Little Rock, AR (72216)

2:12 PM CDT on September 02, 2015 (GMT -0500)
Central Business Equipment | | Change Station
CLOSE
Current Station
Personal Weather Station
Location: Sherwood, AR
Elevation: 288 ft
Nearby Weather Stations

Elev 288 ft 34.82 °N, 92.20 °W | Updated 28 seconds ago

Partly Cloudy
Partly Cloudy
93.9 °F
Feels Like 99 °F
N
2.5
Wind Variable Wind from SSW
Gusts 4.9 mph

Today
High -- | Low -- °F
--% Chance of Precip.
Yesterday
High -- | Low -- °F
Precip. -- in
6:42 AM 7:34 PM
Waning Gibbous, 78% visible
Pressure 30.04 in
Visibility 10.0 miles
Clouds Scattered Clouds 4500 ft
Scattered Clouds 25000 ft
Heat Index 99 °F
Dew Point 68 °F
Humidity 43%
Rainfall 0.00 in
Snow Depth Not available.
UV 8 out of 12
Pollen 9.80 out of 12
Air Quality Not available.
Flu Activity Not available.
METAR KLIT 021853Z 17004KT 10SM SCT045 SCT250 33/18 A3005 RMK AO2 SLP173 CB TOPS DSNT SE-S BLDG CU DSNT ALQDS T03330183
Pressure 30.04 in
Visibility 10.0 miles
Clouds Scattered Clouds 4500 ft
Scattered Clouds 25000 ft
Heat Index 99 °F
Dew Point 68 °F
Humidity 43%
Rainfall 0.00 in
Snow Depth Not available.
UV 8 out of 12
Pollen 9.80 out of 12
Air Quality Not available.
Flu Activity Not available.
METAR KLIT 021853Z 17004KT 10SM SCT045 SCT250 33/18 A3005 RMK AO2 SLP173 CB TOPS DSNT SE-S BLDG CU DSNT ALQDS T03330183

10-Day Weather Forecast

×

Almanac

Astronomy

Sep. 02, 2015 Rise Set
Actual Time
Civil Twilight
Nautical Twilight
Astronomical Twilight
Moon
Length of Visible Light
Length of Day
Tomorrow will be .
, % of the Moon is Illuminated

Today's Extremes

State Highs State Lows

Community

WunderPhotos

Upload Photos

1,851,799 photos uploaded!

WunderBlogs® & News

Nearby

Air Quality

  Air Quality AQ Index Pollutant
Not available.

Snow Depth

Station Depth Elevation

Earthquake Activity

City Distance Mag. Time & Date
Minimum magnitude displayed is 2.5.

Coastal Water Temperatures

Place Temperature

Stations

Nearby Weather Stations

Station Location Temp. Windchill Dew Point Humidity Wind Precip. Elev Updated Type